createdAt,value
2023-05-24T00:00:25.045Z,101282.75
2023-05-24T00:05:31.585Z,101267.06
2023-05-24T00:10:34.775Z,101282.84
2023-05-24T00:15:37.872Z,101278.25
2023-05-24T00:20:41.369Z,101279.38
2023-05-24T00:25:47.747Z,101299.03
2023-05-24T00:30:51.630Z,101279.25
2023-05-24T00:35:58.637Z,101272.41
2023-05-24T00:41:01.888Z,101293.38
2023-05-24T00:46:18.467Z,101288.06
2023-05-24T00:51:21.596Z,101258.34
2023-05-24T00:56:24.740Z,101269.44
2023-05-24T01:01:31.414Z,101282.41
2023-05-24T01:06:50.540Z,101287.84
2023-05-24T01:12:05.831Z,101296.56
2023-05-24T01:17:27.860Z,101286.91
2023-05-24T01:22:33.625Z,101285.47
2023-05-24T01:27:38.809Z,101273.75
2023-05-24T01:32:42.319Z,101278.09
2023-05-24T01:37:45.434Z,101280.09
2023-05-24T01:42:57.003Z,101287.19
2023-05-24T01:48:00.070Z,101317.81
2023-05-24T01:53:07.539Z,101289.34
2023-05-24T01:58:11.368Z,101314.66
2023-05-24T02:03:18.748Z,101315.00
2023-05-24T02:08:22.480Z,101314.22
2023-05-24T02:13:25.778Z,101324.13
2023-05-24T02:18:35.050Z,101305.97
2023-05-24T02:23:38.164Z,101318.97
2023-05-24T02:28:41.774Z,101313.34
2023-05-24T02:33:44.956Z,101324.88
2023-05-24T02:38:48.097Z,101319.06
2023-05-24T02:43:51.355Z,101334.25
2023-05-24T02:48:54.414Z,101316.16
2023-05-24T02:53:57.485Z,101333.09
2023-05-24T02:59:00.558Z,101313.97
2023-05-24T03:04:06.312Z,101314.06
2023-05-24T03:09:09.542Z,101314.91
2023-05-24T03:14:12.590Z,101305.69
2023-05-24T03:19:18.445Z,101305.63
2023-05-24T03:24:21.859Z,101306.34
2023-05-24T03:29:25.807Z,101303.19
2023-05-24T03:34:30.703Z,101314.84
2023-05-24T03:39:33.930Z,101315.00
2023-05-24T03:44:51.411Z,101320.78
2023-05-24T03:49:54.343Z,101313.09
2023-05-24T03:54:57.448Z,101299.47
2023-05-24T04:00:01.173Z,101284.38
2023-05-24T04:05:10.510Z,101286.66
2023-05-24T04:10:14.793Z,101277.84
2023-05-24T04:15:18.157Z,101279.72
2023-05-24T04:20:25.975Z,101270.38
2023-05-24T04:25:29.969Z,101300.13
2023-05-24T04:30:33.354Z,101305.59
2023-05-24T04:35:36.503Z,101306.78
2023-05-24T04:40:40.658Z,101308.66
2023-05-24T04:45:43.910Z,101297.25
2023-05-24T04:50:47.909Z,101300.44
2023-05-24T04:55:51.706Z,101321.13
2023-05-24T05:00:54.808Z,101318.09
2023-05-24T05:05:57.966Z,101309.22
2023-05-24T05:11:01.486Z,101313.19
2023-05-24T05:16:04.879Z,101322.13
2023-05-24T05:21:08.322Z,101321.78
2023-05-24T05:26:11.858Z,101314.63
2023-05-24T05:31:14.875Z,101330.63
2023-05-24T05:36:18.559Z,101324.47
2023-05-24T05:41:22.554Z,101318.16
2023-05-24T05:46:25.690Z,101328.56
2023-05-24T05:51:28.690Z,101317.75
2023-05-24T05:56:31.870Z,101281.44
2023-05-24T06:01:34.961Z,101295.06
2023-05-24T06:06:38.360Z,101290.22
2023-05-24T06:11:45.105Z,101290.81
2023-05-24T06:16:48.868Z,101271.63
2023-05-24T06:21:52.462Z,101277.09
2023-05-24T06:26:56.201Z,101272.34
2023-05-24T06:31:59.426Z,101287.50
2023-05-24T06:37:02.886Z,101296.88
2023-05-24T06:42:06.100Z,101270.09
2023-05-24T06:47:13.296Z,101248.63
2023-05-24T06:52:16.547Z,101245.22
2023-05-24T06:57:19.602Z,101241.47
2023-05-24T07:02:26.860Z,101240.09
2023-05-24T07:07:30.060Z,101226.47
2023-05-24T07:12:33.135Z,101221.31
2023-05-24T07:17:36.392Z,101222.03
2023-05-24T07:22:39.675Z,101228.88
2023-05-24T07:27:42.839Z,101223.41
2023-05-24T07:32:46.381Z,101206.91
2023-05-24T07:37:49.483Z,101208.22
2023-05-24T07:42:52.592Z,101192.25
2023-05-24T07:47:56.988Z,101160.56
2023-05-24T07:53:00.155Z,101162.09
2023-05-24T07:58:03.084Z,101154.44
2023-05-24T08:03:06.970Z,101157.94
2023-05-24T08:08:10.830Z,101141.56
2023-05-24T08:13:15.309Z,101148.22
2023-05-24T08:18:18.394Z,101154.09
2023-05-24T08:23:22.218Z,101153.34
2023-05-24T08:28:25.329Z,101160.72
2023-05-24T08:33:29.457Z,101151.91
2023-05-24T08:38:32.824Z,101151.34
2023-05-24T08:43:36.449Z,101146.41
2023-05-24T08:48:47.933Z,101150.16
2023-05-24T08:53:52.203Z,101156.41
2023-05-24T08:58:56.367Z,101163.41
2023-05-24T09:04:01.011Z,101157.69
2023-05-24T09:09:05.128Z,101145.41
2023-05-24T09:14:08.551Z,101155.81
2023-05-24T09:19:12.368Z,101151.31
2023-05-24T09:24:16.785Z,101140.09
2023-05-24T09:29:24.006Z,101145.03
2023-05-24T09:34:27.128Z,101144.28
2023-05-24T09:39:30.533Z,101137.91
2023-05-24T09:44:33.562Z,101141.00
2023-05-24T09:49:38.090Z,101124.66
2023-05-24T09:54:42.110Z,101136.31
2023-05-24T09:59:45.444Z,101153.59
2023-05-24T10:04:48.852Z,101153.00
2023-05-24T10:09:52.483Z,101136.56
2023-05-24T10:14:57.942Z,101144.72
2023-05-24T10:20:01.088Z,101141.44
2023-05-24T10:25:11.129Z,101162.00
2023-05-24T10:30:20.077Z,101160.31
2023-05-24T10:35:24.691Z,101151.38
2023-05-24T10:40:27.977Z,101149.13
2023-05-24T10:45:36.243Z,101138.41
2023-05-24T10:50:43.522Z,101124.47
2023-05-24T10:56:10.002Z,101113.25
2023-05-24T11:01:33.047Z,101130.34
2023-05-24T11:06:49.949Z,101136.56
2023-05-24T11:12:16.404Z,101130.44
2023-05-24T11:17:23.919Z,101149.13
2023-05-24T11:22:27.270Z,101152.19
2023-05-24T11:27:32.319Z,101141.81
2023-05-24T11:32:35.414Z,101146.78
2023-05-24T11:37:46.150Z,101128.16
2023-05-24T11:42:50.913Z,101142.63
2023-05-24T11:47:56.466Z,101122.66
2023-05-24T11:53:05.575Z,101142.91
2023-05-24T11:58:23.603Z,101147.84
2023-05-24T12:03:26.875Z,101116.84
2023-05-24T12:08:30.061Z,101143.81
2023-05-24T12:13:33.232Z,101133.94
2023-05-24T12:18:38.590Z,101141.06
2023-05-24T12:23:43.124Z,101145.00
2023-05-24T12:28:48.710Z,101124.72
2023-05-24T12:33:54.321Z,101139.47
2023-05-24T12:38:59.056Z,101128.88
2023-05-24T12:44:03.132Z,101130.53
2023-05-24T12:49:06.293Z,101103.66
2023-05-24T12:54:09.487Z,101101.25
2023-05-24T12:59:13.138Z,101112.47
2023-05-24T13:04:17.189Z,101107.28
2023-05-24T13:09:26.026Z,101100.63
2023-05-24T13:14:33.688Z,101075.50
2023-05-24T13:19:36.949Z,101082.88
2023-05-24T13:24:41.228Z,101074.13
2023-05-24T13:29:56.610Z,101068.66
2023-05-24T13:35:04.708Z,101052.84
2023-05-24T13:40:28.115Z,101054.59
2023-05-24T13:45:33.512Z,101043.97
2023-05-24T13:50:37.789Z,101067.88
2023-05-24T13:55:40.949Z,101061.94
2023-05-24T14:00:44.506Z,101054.09
2023-05-24T14:05:48.158Z,101063.00
2023-05-24T14:10:52.110Z,101049.22
2023-05-24T14:15:55.265Z,101053.94
2023-05-24T14:20:58.447Z,101044.66
2023-05-24T14:26:02.759Z,101044.97
2023-05-24T14:31:05.812Z,101046.59
2023-05-24T14:36:09.459Z,101040.03
2023-05-24T14:41:13.336Z,101071.63
2023-05-24T14:46:16.571Z,101056.94
2023-05-24T14:51:19.824Z,101075.81
2023-05-24T14:56:23.333Z,101067.88
2023-05-24T15:01:26.804Z,101085.84
2023-05-24T15:06:35.090Z,101084.50
2023-05-24T15:11:38.232Z,101081.94
2023-05-24T15:16:41.594Z,101075.09
2023-05-24T15:21:44.668Z,101091.78
2023-05-24T15:26:47.701Z,101087.75
2023-05-24T15:31:50.763Z,101087.56
2023-05-24T15:36:53.964Z,101096.19
2023-05-24T15:41:57.339Z,101092.28
2023-05-24T15:47:00.586Z,101086.38
2023-05-24T15:52:04.973Z,101084.88
2023-05-24T15:57:08.506Z,101091.59
2023-05-24T16:02:11.648Z,101104.59
2023-05-24T16:07:14.868Z,101106.88
2023-05-24T16:12:18.585Z,101109.75
2023-05-24T16:17:21.715Z,101100.91
2023-05-24T16:22:24.915Z,101095.94
2023-05-24T16:27:27.953Z,101098.69
2023-05-24T16:32:31.153Z,101093.34
2023-05-24T16:37:36.520Z,101108.50
2023-05-24T16:42:39.479Z,101122.84
2023-05-24T16:47:42.732Z,101116.50
2023-05-24T16:52:45.962Z,101118.69
2023-05-24T16:57:49.120Z,101119.06
2023-05-24T17:02:52.293Z,101121.56
2023-05-24T17:07:55.758Z,101129.78
2023-05-24T17:12:59.006Z,101132.81
2023-05-24T17:18:02.192Z,101148.56
2023-05-24T17:23:05.501Z,101128.97
2023-05-24T17:28:08.661Z,101136.03
2023-05-24T17:33:11.954Z,101127.94
2023-05-24T17:38:15.474Z,101140.91
2023-05-24T17:43:18.690Z,101140.78
2023-05-24T17:48:21.844Z,101126.28
2023-05-24T17:53:31.594Z,101153.31
2023-05-24T17:58:37.565Z,101162.72
2023-05-24T18:03:42.014Z,101149.81
2023-05-24T18:08:45.399Z,101160.09
2023-05-24T18:13:48.513Z,101176.75
2023-05-24T18:18:51.817Z,101174.97
2023-05-24T18:23:54.977Z,101187.88
2023-05-24T18:28:58.066Z,101174.59
2023-05-24T18:34:01.915Z,101172.56
2023-05-24T18:39:05.336Z,101200.59
2023-05-24T18:44:08.489Z,101201.78
2023-05-24T18:49:13.109Z,101187.66
2023-05-24T18:54:17.833Z,101189.25
2023-05-24T18:59:27.433Z,101173.16
2023-05-24T19:04:30.653Z,101167.06
2023-05-24T19:09:34.156Z,101196.22
2023-05-24T19:14:37.895Z,101185.59
2023-05-24T19:19:40.932Z,101201.38
2023-05-24T19:24:45.395Z,101181.41
2023-05-24T19:29:48.499Z,101202.34
2023-05-24T19:34:52.478Z,101220.91
2023-05-24T19:39:55.622Z,101197.94
2023-05-24T19:44:58.730Z,101200.09
2023-05-24T19:50:01.748Z,101197.41
2023-05-24T19:55:06.910Z,101209.22
2023-05-24T20:00:10.398Z,101191.41
2023-05-24T20:05:17.685Z,101189.19
2023-05-24T20:10:20.793Z,101180.06
2023-05-24T20:15:28.370Z,101193.16
2023-05-24T20:20:31.510Z,101186.63
2023-05-24T20:25:34.665Z,101173.28
2023-05-24T20:30:38.065Z,101184.88
2023-05-24T20:35:41.260Z,101172.41
2023-05-24T20:40:44.326Z,101173.81
2023-05-24T20:45:47.924Z,101196.84
2023-05-24T20:50:51.242Z,101182.91
2023-05-24T20:55:54.506Z,101185.19
2023-05-24T21:00:57.668Z,101190.06
2023-05-24T21:06:00.778Z,101197.50
2023-05-24T21:11:03.757Z,101170.00
2023-05-24T21:16:06.846Z,101164.22
2023-05-24T21:21:11.274Z,101158.84
2023-05-24T21:26:14.364Z,101155.97
2023-05-24T21:31:17.453Z,101136.84
2023-05-24T21:36:20.530Z,101158.56
2023-05-24T21:41:23.983Z,101162.09
2023-05-24T21:46:29.462Z,101171.19
2023-05-24T21:51:32.643Z,101170.22
2023-05-24T21:56:35.697Z,101173.84
2023-05-24T22:01:38.794Z,101167.50
2023-05-24T22:06:42.980Z,101163.41
2023-05-24T22:11:46.088Z,101180.63
2023-05-24T22:16:49.635Z,101191.09
2023-05-24T22:21:55.973Z,101194.28
2023-05-24T22:27:01.551Z,101200.09
2023-05-24T22:32:04.935Z,101176.03
2023-05-24T22:37:08.061Z,101180.06
2023-05-24T22:42:11.391Z,101174.66
2023-05-24T22:47:15.932Z,101173.25
2023-05-24T22:52:20.306Z,101188.16
2023-05-24T22:57:23.395Z,101195.22
2023-05-24T23:02:27.864Z,101204.31
2023-05-24T23:07:30.940Z,101201.94
2023-05-24T23:12:34.595Z,101200.25
2023-05-24T23:17:37.865Z,101205.69
2023-05-24T23:22:40.934Z,101209.53
2023-05-24T23:27:43.992Z,101211.03
2023-05-24T23:32:46.993Z,101221.66
2023-05-24T23:37:50.032Z,101203.78
2023-05-24T23:42:53.233Z,101208.53
2023-05-24T23:47:56.408Z,101198.03
2023-05-24T23:52:59.487Z,101196.72
2023-05-24T23:58:02.969Z,101206.19
